Time;durP1;ratioP1;P1;durP2;ratioP2;P2;SDS_P1;SDS_P2;PMS_P1;PMS_P2;Temp;Humidity;BMP_temperature;BMP_pressure;BME280_temperature;BME280_humidity;BME280_pressure;Samples;Min_cycle;Max_cycle;Signal;HPM_P1;HPM_P2
2021/05/27 00:02:02;;;;;;;13.98;6.35;;;;;;;8.72;68.19;97866.81;1739986;82;20902;-77
2021/05/27 00:04:28;;;;;;;8.58;4.22;;;;;;;8.78;68.54;97864.09;1739838;82;20959;-77
2021/05/27 00:06:54;;;;;;;8.75;5.15;;;;;;;8.77;69.21;97868.69;1739733;82;20961;-77
2021/05/27 00:09:20;;;;;;;18.02;5.35;;;;;;;8.74;70.45;97874.09;1740100;82;20867;-77
2021/05/27 00:11:46;;;;;;;8.80;5.28;;;;;;;8.74;70.45;97874.09;1740029;82;20889;-77
2021/05/27 00:14:12;;;;;;;10.25;6.37;;;;;;;8.67;69.62;97868.16;1739858;82;20980;-77
2021/05/27 00:16:38;;;;;;;8.85;4.37;;;;;;;8.63;69.62;97868.95;1739801;82;21264;-77
2021/05/27 00:19:04;;;;;;;5.67;2.70;;;;;;;8.60;69.90;97879.77;1739978;82;20938;-77
2021/05/27 00:21:30;;;;;;;12.20;3.90;;;;;;;8.65;68.77;97879.78;1739937;82;21037;-77
2021/05/27 00:23:57;;;;;;;4.50;2.70;;;;;;;8.71;68.85;97882.73;1739930;82;20930;-77
2021/05/27 00:26:23;;;;;;;8.30;3.52;;;;;;;8.80;69.20;97884.34;1739952;82;21072;-77
2021/05/27 00:28:49;;;;;;;6.17;3.62;;;;;;;8.86;68.85;97882.45;1739855;82;21199;-77
2021/05/27 00:31:15;;;;;;;7.83;3.70;;;;;;;8.92;68.30;97885.44;1739846;82;20958;-77
2021/05/27 00:33:42;;;;;;;7.87;3.60;;;;;;;9.01;67.92;97883.25;1739976;82;21975;-77
2021/05/27 00:36:09;;;;;;;7.83;4.40;;;;;;;9.10;67.88;97885.41;1739924;82;20933;-77
2021/05/27 00:38:34;;;;;;;11.18;5.00;;;;;;;9.07;67.83;97885.42;1739856;82;21025;-76
2021/05/27 00:41:01;;;;;;;13.00;5.28;;;;;;;9.02;67.64;97893.52;1739961;80;20918;-76
2021/05/27 00:43:27;;;;;;;13.72;6.72;;;;;;;9.02;67.81;97892.98;1739771;82;20934;-77
2021/05/27 00:45:53;;;;;;;11.22;6.85;;;;;;;8.97;67.79;97890.81;1739804;82;21627;-77
2021/05/27 00:51:03;;;;;;;13.25;6.92;;;;;;;8.98;68.04;97884.36;1740036;82;20993;-76
2021/05/27 00:53:29;;;;;;;18.92;8.33;;;;;;;8.89;70.46;97889.50;1712878;82;21078;-76
2021/05/27 00:55:55;;;;;;;10.65;6.78;;;;;;;8.94;68.70;97885.97;1688961;82;21037;-76
2021/05/27 00:58:23;;;;;;;11.38;7.37;;;;;;;8.87;69.57;97892.98;1739986;82;20909;-76
2021/05/27 01:00:50;;;;;;;15.35;7.67;;;;;;;8.99;69.03;97891.38;1739802;82;20993;-76
2021/05/27 01:03:17;;;;;;;13.40;8.05;;;;;;;9.00;70.30;97882.98;1739745;82;21493;-75
2021/05/27 01:05:43;;;;;;;15.32;7.78;;;;;;;9.11;68.98;97891.89;1739880;82;21217;-76
2021/05/27 01:08:09;;;;;;;18.20;8.93;;;;;;;9.13;68.61;97892.95;1739679;82;20989;-76
2021/05/27 01:10:35;;;;;;;15.23;7.45;;;;;;;9.07;68.62;97892.17;1739869;82;21068;-76
2021/05/27 01:13:01;;;;;;;15.63;7.72;;;;;;;9.07;68.40;97890.83;1739973;82;20985;-76
2021/05/27 01:15:38;;;;;;;11.85;6.92;;;;;;;9.01;68.27;97887.31;1740324;82;21052;-76
2021/05/27 01:18:13;;;;;;;11.68;7.03;;;;;;;8.99;68.29;97884.08;1739926;82;21009;-77
2021/05/27 01:20:46;;;;;;;7.85;4.90;;;;;;;8.92;68.38;97888.95;1739784;82;21021;-75
2021/05/27 01:23:13;;;;;;;6.92;3.12;;;;;;;8.91;69.94;97881.92;1739770;82;21449;-77
2021/05/27 01:25:41;;;;;;;5.28;3.00;;;;;;;8.91;69.12;97881.92;1739887;82;21072;-77
2021/05/27 01:28:07;;;;;;;7.83;4.05;;;;;;;8.92;69.36;97878.68;1740291;82;20986;-76
2021/05/27 01:30:33;;;;;;;8.78;4.40;;;;;;;8.89;69.30;97887.34;1712520;82;22823;-76
2021/05/27 01:32:59;;;;;;;7.58;3.20;;;;;;;8.88;71.19;97885.69;1739705;82;20930;-77
2021/05/27 01:35:26;;;;;;;6.67;3.62;;;;;;;8.93;69.98;97889.21;1739871;82;21049;-76
2021/05/27 01:37:52;;;;;;;6.20;3.12;;;;;;;8.90;69.66;97890.30;1713071;82;21053;-76
2021/05/27 01:40:22;;;;;;;5.17;3.35;;;;;;;8.87;69.40;97897.05;1740021;82;20976;-76
2021/05/27 01:42:48;;;;;;;6.15;4.42;;;;;;;8.88;70.61;97888.39;1738369;81;21167;-76
2021/05/27 01:45:14;;;;;;;9.03;4.95;;;;;;;8.93;69.94;97887.86;1739816;82;21075;-76
2021/05/27 01:47:41;;;;;;;12.33;5.30;;;;;;;8.94;72.23;97884.07;1739941;82;21021;-76
2021/05/27 01:50:10;;;;;;;14.90;7.25;;;;;;;8.98;70.10;97889.76;1739709;82;21112;-76
2021/05/27 01:52:37;;;;;;;14.23;7.78;;;;;;;8.97;70.34;97888.95;1739630;82;22334;-76
2021/05/27 01:55:05;;;;;;;11.65;6.45;;;;;;;9.02;69.80;97890.28;1739924;82;21670;-75
2021/05/27 01:57:31;;;;;;;16.77;6.62;;;;;;;8.94;72.48;97882.72;1739921;82;21073;-76
2021/05/27 01:59:57;;;;;;;13.62;7.22;;;;;;;8.95;71.51;97896.50;1739862;82;21048;-76
2021/05/27 02:02:24;;;;;;;13.10;6.80;;;;;;;8.97;71.16;97902.47;1739825;82;20886;-76
2021/05/27 02:04:49;;;;;;;10.45;6.17;;;;;;;9.01;70.78;97902.17;1739949;82;21009;-76
2021/05/27 02:07:15;;;;;;;11.80;4.83;;;;;;;9.03;70.44;97903.25;1739929;82;21211;-76
2021/05/27 02:09:41;;;;;;;9.05;5.50;;;;;;;9.00;70.56;97904.61;1739835;82;21016;-76
2021/05/27 02:12:08;;;;;;;9.60;5.72;;;;;;;9.01;70.54;97905.42;1739714;82;20890;-76
2021/05/27 02:14:34;;;;;;;8.38;3.65;;;;;;;8.93;70.88;97905.42;1739815;82;21032;-76
2021/05/27 02:17:00;;;;;;;6.40;3.50;;;;;;;8.90;72.62;97895.17;1739923;82;21462;-76
2021/05/27 02:19:26;;;;;;;5.37;3.08;;;;;;;8.87;70.87;97902.45;1712645;82;20971;-76
2021/05/27 02:21:54;;;;;;;10.03;4.47;;;;;;;8.73;71.56;97909.50;1739698;82;21408;-76
2021/05/27 02:24:20;;;;;;;13.18;7.08;;;;;;;8.77;70.97;97906.51;1712109;82;21529;-76
2021/05/27 02:26:46;;;;;;;17.62;8.00;;;;;;;8.80;70.97;97912.71;1739808;82;21216;-76
2021/05/27 02:29:12;;;;;;;16.65;6.95;;;;;;;8.78;70.75;97910.02;1740104;82;20965;-76
2021/05/27 02:31:39;;;;;;;8.83;4.25;;;;;;;8.75;74.89;97910.03;1739925;82;21105;-76
2021/05/27 02:34:05;;;;;;;10.60;4.97;;;;;;;8.78;72.11;97910.02;1739793;81;20945;-76
2021/05/27 02:36:31;;;;;;;11.30;5.47;;;;;;;8.81;71.54;97909.50;1739712;82;21060;-76
2021/05/27 02:38:57;;;;;;;9.18;4.20;;;;;;;8.87;73.44;97915.15;1739810;82;20957;-76
2021/05/27 02:41:23;;;;;;;9.85;4.60;;;;;;;8.88;72.80;97919.47;1739846;80;21441;-76
2021/05/27 02:43:50;;;;;;;6.03;3.20;;;;;;;8.96;72.03;97914.88;1739782;82;21603;-76
2021/05/27 02:46:17;;;;;;;6.90;2.83;;;;;;;9.03;72.59;97912.70;1712454;82;21053;-76
2021/05/27 02:48:43;;;;;;;13.25;4.47;;;;;;;9.07;72.01;97917.86;1712654;82;20913;-76
2021/05/27 02:51:08;;;;;;;6.10;3.72;;;;;;;9.02;72.98;97910.55;1739853;82;20909;-76
2021/05/27 02:53:34;;;;;;;7.22;2.70;;;;;;;8.98;72.19;97910.84;1739732;82;20862;-76
2021/05/27 02:56:00;;;;;;;5.50;3.15;;;;;;;8.99;71.87;97911.10;1739778;82;21116;-76
2021/05/27 02:58:27;;;;;;;11.35;2.60;;;;;;;9.05;71.52;97915.40;1739631;82;20970;-76
2021/05/27 03:00:53;;;;;;;6.62;2.87;;;;;;;9.05;71.42;97910.53;1713369;82;21079;-76
2021/05/27 03:03:21;;;;;;;7.33;4.12;;;;;;;9.01;70.88;97918.39;1739730;82;20962;-76
2021/05/27 03:05:48;;;;;;;6.50;3.08;;;;;;;8.98;71.08;97926.24;1739830;82;21055;-76
2021/05/27 03:08:14;;;;;;;7.03;3.10;;;;;;;8.91;71.83;97915.70;1739791;82;21077;-76
2021/05/27 03:10:41;;;;;;;6.67;2.75;;;;;;;8.91;71.30;97923.00;1739899;82;21521;-76
2021/05/27 03:13:07;;;;;;;7.17;3.62;;;;;;;8.90;71.93;97922.73;1739821;82;20946;-76
2021/05/27 03:15:34;;;;;;;12.55;4.92;;;;;;;8.90;71.97;97928.14;1739933;82;21065;-76
2021/05/27 03:18:03;;;;;;;5.92;3.35;;;;;;;8.83;73.80;97926.24;1739853;82;21028;-76
2021/05/27 03:20:29;;;;;;;7.17;2.75;;;;;;;8.83;73.96;97935.16;1739361;82;21262;-76
2021/05/27 03:22:55;;;;;;;7.53;3.90;;;;;;;8.86;72.63;97939.20;1739701;82;21437;-76
2021/05/27 03:25:21;;;;;;;6.40;3.60;;;;;;;8.90;73.47;97933.55;1739765;82;20874;-76
2021/05/27 03:27:47;;;;;;;5.80;3.22;;;;;;;8.94;72.77;97939.47;1740130;82;20957;-76
2021/05/27 03:30:15;;;;;;;6.70;4.03;;;;;;;8.95;72.42;97945.69;1739876;82;21552;-76
2021/05/27 03:32:41;;;;;;;21.12;5.20;;;;;;;8.99;72.22;97950.83;1739667;82;21107;-76
2021/05/27 03:35:11;;;;;;;9.78;4.97;;;;;;;9.07;72.32;97948.13;1740037;82;20961;-76
2021/05/27 03:37:37;;;;;;;18.17;5.15;;;;;;;9.02;72.31;97951.09;1712869;82;21021;-76
2021/05/27 03:40:13;;;;;;;11.08;6.08;;;;;;;9.07;71.94;97957.59;1739757;82;21021;-76
2021/05/27 03:42:49;;;;;;;9.88;4.40;;;;;;;9.13;72.44;97951.89;1746509;80;21019;-76
2021/05/27 03:45:19;;;;;;;13.35;5.62;;;;;;;9.14;72.04;97952.70;1748620;82;21429;-77
2021/05/27 03:47:46;;;;;;;8.43;3.08;;;;;;;9.18;73.01;97950.55;1749415;82;20988;-76
2021/05/27 03:50:14;;;;;;;10.53;6.53;;;;;;;9.23;74.33;97947.04;1720203;82;21056;-76
2021/05/27 03:52:40;;;;;;;11.30;6.67;;;;;;;9.36;72.96;97953.22;1750294;81;20952;-76
2021/05/27 03:55:09;;;;;;;8.20;3.92;;;;;;;9.47;73.97;97952.11;1720443;82;20972;-76
2021/05/27 03:57:35;;;;;;;10.72;3.50;;;;;;;9.55;72.99;97956.16;1749779;82;21008;-76
2021/05/27 04:02:47;;;;;;;5.12;3.15;;;;;;;9.71;72.32;97957.73;1749697;81;21028;-76
2021/05/27 04:07:58;;;;;;;20.72;4.90;;;;;;;9.92;71.53;97964.45;1749799;81;20980;-77
2021/05/27 04:10:24;;;;;;;11.03;5.67;;;;;;;9.99;71.17;97965.75;1749747;82;21105;-77
2021/05/27 04:12:50;;;;;;;26.95;6.78;;;;;;;10.06;71.27;97970.32;1749630;81;21528;-77
2021/05/27 04:15:32;;;;;;;13.72;5.75;;;;;;;10.12;71.86;97954.88;1749649;82;20988;-77
2021/05/27 04:18:05;;;;;;;7.75;3.77;;;;;;;10.26;71.04;97961.89;1748423;82;21050;-75
2021/05/27 04:20:35;;;;;;;7.67;2.80;;;;;;;10.35;71.52;97962.92;1749681;82;21052;-76
2021/05/27 04:23:03;;;;;;;11.55;2.92;;;;;;;10.51;70.97;97954.14;1749573;81;21235;-76
2021/05/27 04:25:29;;;;;;;10.30;4.53;;;;;;;10.57;70.82;97959.25;1749835;82;21531;-76
2021/05/27 04:27:57;;;;;;;9.48;4.65;;;;;;;10.66;71.25;97954.85;1749718;81;21355;-76
2021/05/27 04:30:24;;;;;;;11.10;5.58;;;;;;;10.93;70.75;97950.31;1749729;81;21071;-75
2021/05/27 04:32:56;;;;;;;13.08;5.62;;;;;;;10.93;70.75;97950.31;1720191;82;21063;-75
2021/05/27 04:35:31;;;;;;;13.72;7.70;;;;;;;11.06;70.42;97958.36;1749728;81;21115;-76
2021/05/27 04:38:07;;;;;;;8.68;4.80;;;;;;;11.15;70.32;97958.00;1749660;81;20945;-76
2021/05/27 04:40:34;;;;;;;7.42;3.55;;;;;;;11.31;70.43;97960.03;1749765;82;20932;-76
2021/05/27 04:43:00;;;;;;;14.45;4.28;;;;;;;11.41;70.04;97953.70;1742743;82;21025;-76
2021/05/27 04:45:26;;;;;;;8.13;3.75;;;;;;;11.47;69.90;97952.56;1712824;82;20965;-76
2021/05/27 04:47:52;;;;;;;13.83;3.85;;;;;;;11.53;69.73;97948.13;1739851;82;21905;-76
2021/05/27 04:50:18;;;;;;;7.92;3.67;;;;;;;11.61;70.30;97941.27;1739746;82;20978;-76
2021/05/27 04:52:44;;;;;;;7.10;2.98;;;;;;;11.73;70.13;97930.84;1739940;82;20890;-76
2021/05/27 04:55:12;;;;;;;13.48;4.75;;;;;;;11.85;70.38;97924.47;1740064;82;20957;-75
2021/05/27 04:57:38;;;;;;;7.12;3.37;;;;;;;12.05;70.13;97920.71;1739896;82;22192;-75
2021/05/27 05:00:09;;;;;;;4.08;2.10;;;;;;;12.27;69.77;97912.53;1739833;82;21205;-75
2021/05/27 05:02:35;;;;;;;15.08;4.55;;;;;;;12.60;69.67;97906.06;1739753;82;21044;-76
2021/05/27 05:05:01;;;;;;;9.78;4.03;;;;;;;13.02;68.69;97902.95;1739853;82;20894;-76
2021/05/27 05:07:27;;;;;;;10.65;3.70;;;;;;;13.43;68.05;97904.98;1739934;82;20917;-76
2021/05/27 05:09:52;;;;;;;7.83;4.05;;;;;;;13.79;65.70;97898.28;1739975;82;20956;-76
2021/05/27 05:12:18;;;;;;;10.30;3.50;;;;;;;14.13;65.74;97906.02;1739907;82;21872;-76
2021/05/27 05:14:45;;;;;;;7.62;4.12;;;;;;;14.39;64.01;97916.61;1739780;82;20854;-76
2021/05/27 05:17:11;;;;;;;8.98;3.75;;;;;;;14.70;63.81;97921.94;1740026;82;21053;-76
2021/05/27 05:19:37;;;;;;;7.47;3.17;;;;;;;15.10;63.00;97922.33;1713039;82;21009;-76
2021/05/27 05:22:03;;;;;;;6.03;2.27;;;;;;;15.33;59.65;97922.31;1739909;82;21477;-76
2021/05/27 05:24:29;;;;;;;3.22;1.77;;;;;;;15.29;59.74;97923.48;1739879;82;21732;-76
2021/05/27 05:26:55;;;;;;;3.42;1.35;;;;;;;15.40;59.27;97928.14;1739774;82;21005;-76
2021/05/27 05:29:21;;;;;;;6.03;1.55;;;;;;;15.48;56.28;97926.81;1740372;82;20965;-76
2021/05/27 05:31:47;;;;;;;3.37;1.00;;;;;;;15.57;56.27;97921.95;1739996;82;21089;-76
2021/05/27 05:34:13;;;;;;;2.10;1.25;;;;;;;15.65;54.96;97922.59;1739933;82;21615;-76
2021/05/27 05:36:39;;;;;;;2.30;1.25;;;;;;;15.71;53.44;97909.82;1739920;82;21240;-76
2021/05/27 05:39:05;;;;;;;3.77;1.10;;;;;;;15.87;53.13;97917.03;1739745;82;20850;-76
2021/05/27 05:41:31;;;;;;;3.72;1.57;;;;;;;15.97;52.30;97916.73;1739870;82;21005;-76
2021/05/27 05:43:58;;;;;;;1.80;0.90;;;;;;;16.00;52.33;97919.42;1748737;80;20893;-76
2021/05/27 05:46:25;;;;;;;2.55;1.40;;;;;;;16.11;52.28;97919.92;1720879;82;21004;-76
2021/05/27 05:48:51;;;;;;;3.20;1.42;;;;;;;16.28;51.45;97919.95;1749576;82;21476;-76
2021/05/27 05:51:17;;;;;;;1.62;0.90;;;;;;;16.45;51.60;97924.08;1749663;82;20983;-76
2021/05/27 05:53:43;;;;;;;1.92;1.22;;;;;;;16.62;50.38;97926.83;1749617;82;20984;-76
2021/05/27 05:56:09;;;;;;;1.40;0.80;;;;;;;16.62;49.16;97927.40;1749814;82;20956;-76
2021/05/27 05:58:35;;;;;;;2.67;1.30;;;;;;;16.52;49.60;97931.25;1749743;82;20940;-76
2021/05/27 06:01:01;;;;;;;5.20;1.80;;;;;;;16.52;49.82;97925.78;1749608;82;21916;-76
2021/05/27 06:03:27;;;;;;;5.17;2.02;;;;;;;16.60;49.29;97926.92;1749482;81;20865;-76
2021/05/27 06:05:53;;;;;;;4.37;3.05;;;;;;;16.59;49.91;97932.95;1749735;82;20928;-76
2021/05/27 06:08:19;;;;;;;4.55;2.22;;;;;;;16.67;49.57;97927.25;1720287;82;21062;-76
2021/05/27 06:10:45;;;;;;;2.33;1.35;;;;;;;16.73;50.09;97926.54;1749884;81;21055;-76
2021/05/27 06:13:11;;;;;;;4.60;1.40;;;;;;;16.77;49.55;97932.99;1749653;82;21826;-76
2021/05/27 06:15:37;;;;;;;2.27;1.25;;;;;;;16.70;49.08;97929.93;1749481;82;20987;-76
2021/05/27 06:18:03;;;;;;;3.25;1.70;;;;;;;16.82;49.54;97936.92;1724610;82;21016;-76
2021/05/27 06:20:29;;;;;;;4.87;1.30;;;;;;;16.89;49.76;97936.68;1749577;81;21043;-76
2021/05/27 06:22:55;;;;;;;3.20;1.47;;;;;;;17.01;49.44;97942.09;1749593;81;20920;-76
2021/05/27 06:25:22;;;;;;;2.70;1.40;;;;;;;17.02;46.87;97943.13;1749795;82;20948;-76
2021/05/27 06:27:50;;;;;;;2.05;1.12;;;;;;;17.15;48.15;97941.33;1749549;82;20917;-76
2021/05/27 06:30:17;;;;;;;1.60;0.90;;;;;;;17.33;47.94;97943.47;1749688;82;21484;-76
2021/05/27 06:32:42;;;;;;;2.42;0.98;;;;;;;17.25;47.27;97947.83;1749545;81;20984;-76
2021/05/27 06:35:11;;;;;;;2.85;1.57;;;;;;;17.37;46.82;97943.87;1749606;82;20877;-77
2021/05/27 06:37:38;;;;;;;2.33;0.98;;;;;;;17.23;45.65;97946.55;1720586;82;21024;-77
2021/05/27 06:40:09;;;;;;;1.80;0.98;;;;;;;17.29;46.79;97946.06;1749493;82;20945;-76
2021/05/27 06:42:35;;;;;;;1.80;1.22;;;;;;;17.39;46.44;97949.83;1747641;81;20950;-76
2021/05/27 06:45:00;;;;;;;4.25;1.00;;;;;;;17.48;45.85;97942.95;1740378;82;20933;-76
2021/05/27 06:47:26;;;;;;;1.62;1.00;;;;;;;17.30;45.26;97946.87;1739771;82;20882;-76
2021/05/27 06:49:52;;;;;;;8.55;1.45;;;;;;;17.54;45.93;97951.81;1740051;82;20906;-76
2021/05/27 06:52:18;;;;;;;2.20;1.20;;;;;;;17.72;46.00;97955.56;1739709;82;20961;-76
2021/05/27 06:54:44;;;;;;;2.05;1.20;;;;;;;17.84;44.92;97954.06;1739754;82;20870;-77
2021/05/27 06:57:10;;;;;;;1.15;0.90;;;;;;;17.84;44.90;97954.06;1713104;82;20992;-78
2021/05/27 06:59:35;;;;;;;2.17;1.20;;;;;;;18.05;44.75;97957.70;1739765;82;20902;-76
2021/05/27 07:02:01;;;;;;;1.92;1.15;;;;;;;18.28;44.39;97954.09;1739751;82;20874;-76
2021/05/27 07:04:27;;;;;;;1.62;0.80;;;;;;;18.32;42.59;97949.56;1739709;82;20838;-76
2021/05/27 07:06:53;;;;;;;2.47;0.80;;;;;;;18.62;43.66;97948.95;1740094;82;20870;-76
2021/05/27 07:09:22;;;;;;;3.37;0.90;;;;;;;18.81;43.15;97952.66;1739743;82;21460;-76
2021/05/27 07:11:49;;;;;;;3.95;0.93;;;;;;;19.18;43.39;97945.95;1740070;82;20902;-76
2021/05/27 07:14:14;;;;;;;3.67;1.42;;;;;;;19.43;43.10;97941.58;1740001;82;20954;-76
2021/05/27 07:16:40;;;;;;;2.02;1.00;;;;;;;19.55;40.88;97939.41;1712353;82;20902;-77
2021/05/27 07:19:06;;;;;;;2.50;0.70;;;;;;;19.48;41.82;97940.54;1739745;82;20846;-77
2021/05/27 07:21:32;;;;;;;2.08;0.93;;;;;;;19.69;41.62;97939.95;1739799;82;20878;-76
2021/05/27 07:23:58;;;;;;;2.75;1.20;;;;;;;19.90;40.82;97942.59;1739726;82;20869;-76
2021/05/27 07:26:24;;;;;;;1.32;0.90;;;;;;;20.09;40.45;97950.30;1739865;82;20901;-77
2021/05/27 07:28:50;;;;;;;2.12;1.00;;;;;;;20.45;40.56;97945.95;1739806;82;20985;-76
2021/05/27 07:31:15;;;;;;;3.00;0.93;;;;;;;20.98;38.82;97944.79;1740222;82;20930;-76
2021/05/27 07:33:41;;;;;;;1.70;0.72;;;;;;;20.68;38.23;97941.56;1739910;82;21046;-76
2021/05/27 07:36:07;;;;;;;1.32;0.85;;;;;;;20.73;38.78;97935.00;1739965;82;20914;-76
2021/05/27 07:38:33;;;;;;;1.27;0.80;;;;;;;20.90;38.67;97936.09;1739903;82;21065;-76
2021/05/27 07:40:59;;;;;;;3.27;1.15;;;;;;;21.20;38.01;97935.77;1739907;82;20878;-76
2021/05/27 07:43:25;;;;;;;1.77;0.90;;;;;;;21.45;37.26;97935.07;1740069;80;21029;-76
2021/05/27 07:45:51;;;;;;;4.33;1.37;;;;;;;22.05;37.25;97933.06;1740486;82;20909;-76
2021/05/27 07:48:17;;;;;;;2.55;1.17;;;;;;;22.05;35.79;97935.82;1740315;82;20992;-76
2021/05/27 07:50:42;;;;;;;2.77;1.20;;;;;;;22.27;36.40;97938.55;1712726;82;20925;-76
2021/05/27 07:53:09;;;;;;;2.58;1.10;;;;;;;21.95;35.10;97944.06;1740291;82;20961;-76
2021/05/27 07:55:36;;;;;;;2.45;1.25;;;;;;;21.68;35.48;97941.02;1739891;82;20874;-76
2021/05/27 07:58:02;;;;;;;2.05;1.30;;;;;;;21.81;35.22;97956.13;1739894;82;20973;-76
2021/05/27 08:00:28;;;;;;;4.30;1.80;;;;;;;21.98;35.38;97943.37;1739957;82;20902;-76
2021/05/27 08:02:54;;;;;;;5.03;1.45;;;;;;;22.63;35.66;97942.34;1740027;82;21215;-76
2021/05/27 08:05:20;;;;;;;2.75;2.22;;;;;;;22.28;34.81;97945.67;1739792;82;20901;-76
2021/05/27 08:07:46;;;;;;;4.78;2.90;;;;;;;22.76;35.31;97948.56;1739921;82;20894;-77
2021/05/27 08:10:12;;;;;;;2.77;1.45;;;;;;;23.19;34.84;97960.53;1739921;82;21017;-77
2021/05/27 08:12:40;;;;;;;2.87;0.80;;;;;;;22.84;35.20;97959.19;1740060;82;20941;-77
2021/05/27 08:15:06;;;;;;;1.20;0.70;;;;;;;21.61;34.92;97956.00;1739845;82;21048;-77
2021/05/27 08:17:33;;;;;;;2.27;1.00;;;;;;;21.69;35.83;97961.13;1739825;82;21441;-76
2021/05/27 08:19:59;;;;;;;2.83;1.17;;;;;;;21.20;35.57;97962.73;1740275;82;20958;-77
2021/05/27 08:22:27;;;;;;;3.25;1.27;;;;;;;20.61;37.06;97970.25;1740012;82;20937;-76
2021/05/27 08:24:52;;;;;;;3.83;1.47;;;;;;;20.67;37.38;97963.33;1740210;81;20902;-77
2021/05/27 08:27:18;;;;;;;2.12;1.27;;;;;;;20.71;37.59;97966.21;1739863;82;21009;-77
2021/05/27 08:29:44;;;;;;;2.37;1.17;;;;;;;21.19;36.81;97958.36;1740020;82;20893;-77
2021/05/27 08:32:11;;;;;;;2.22;1.00;;;;;;;21.88;35.14;97958.50;1739905;82;21531;-76
2021/05/27 08:34:37;;;;;;;2.30;1.10;;;;;;;21.94;34.83;97952.11;1739894;82;20999;-76
2021/05/27 08:37:03;;;;;;;2.17;1.22;;;;;;;21.67;35.25;97960.11;1740074;82;21088;-76
2021/05/27 08:39:29;;;;;;;5.25;3.15;;;;;;;22.11;35.80;97958.69;1712794;82;21109;-76
2021/05/27 08:41:56;;;;;;;6.67;3.55;;;;;;;23.00;35.14;97966.87;1739781;82;20922;-76
2021/05/27 08:44:23;;;;;;;7.87;3.13;;;;;;;23.09;33.86;97970.21;1740029;80;20910;-77
2021/05/27 08:46:49;;;;;;;8.50;2.85;;;;;;;23.71;32.63;97957.22;1739824;82;21225;-77
2021/05/27 08:49:16;;;;;;;3.87;1.20;;;;;;;24.38;32.61;97958.19;1739834;82;20870;-77
2021/05/27 08:51:42;;;;;;;2.50;0.93;;;;;;;24.68;32.10;97952.09;1739904;82;21092;-77
2021/05/27 08:54:09;;;;;;;1.95;1.00;;;;;;;24.50;32.21;97952.42;1739769;82;21409;-77
2021/05/27 08:56:34;;;;;;;3.33;0.72;;;;;;;23.88;30.58;97954.56;1739926;82;20974;-77
2021/05/27 08:59:00;;;;;;;2.92;1.20;;;;;;;24.01;31.49;97957.34;1713484;82;20862;-77
2021/05/27 09:01:26;;;;;;;1.57;1.17;;;;;;;24.99;30.25;97953.70;1739931;82;21092;-77
2021/05/27 09:03:54;;;;;;;3.30;1.20;;;;;;;24.64;30.19;97955.41;1739919;82;21038;-77
2021/05/27 09:06:20;;;;;;;1.67;1.00;;;;;;;24.89;30.58;97951.59;1712790;82;21080;-77
2021/05/27 09:08:46;;;;;;;2.65;1.42;;;;;;;24.81;30.12;97959.60;1712531;82;20950;-77
2021/05/27 09:11:14;;;;;;;1.20;0.75;;;;;;;25.25;29.67;97957.61;1740463;82;20862;-77
2021/05/27 09:13:59;;;;;;;4.60;1.17;;;;;;;23.98;30.46;97955.91;1739935;82;21053;-77
2021/05/27 09:16:26;;;;;;;1.45;0.90;;;;;;;24.38;30.58;97952.64;1739885;82;21897;-76
2021/05/27 09:18:52;;;;;;;2.42;1.45;;;;;;;24.62;30.32;97950.83;1739756;82;21049;-76
2021/05/27 09:21:34;;;;;;;2.85;0.80;;;;;;;24.73;30.24;97955.13;1712680;82;21048;-76
2021/05/27 09:24:00;;;;;;;3.70;1.07;;;;;;;24.72;29.42;97956.31;1739260;82;21013;-76
2021/05/27 09:26:26;;;;;;;6.28;1.02;;;;;;;25.22;28.52;97964.72;1739836;82;21057;-76
2021/05/27 09:29:09;;;;;;;1.82;0.70;;;;;;;24.34;29.33;97974.72;1739837;82;21098;-76
2021/05/27 09:31:35;;;;;;;2.00;1.20;;;;;;;24.83;29.29;97979.41;1738103;82;21465;-77
2021/05/27 09:34:03;;;;;;;2.55;1.17;;;;;;;24.46;29.32;97981.45;1712508;82;21526;-77
2021/05/27 09:36:29;;;;;;;1.10;0.82;;;;;;;25.06;29.45;97986.30;1739893;82;20996;-77
2021/05/27 09:39:00;;;;;;;2.33;1.30;;;;;;;24.78;29.06;97978.34;1740238;82;20909;-77
2021/05/27 09:41:30;;;;;;;2.87;1.37;;;;;;;25.51;28.59;97979.70;1740172;82;21513;-76
2021/05/27 09:44:08;;;;;;;1.60;0.70;;;;;;;25.10;29.50;97972.47;1739595;80;20990;-76
2021/05/27 09:46:51;;;;;;;1.70;0.97;;;;;;;23.87;30.21;97973.72;1740220;82;21435;-77
2021/05/27 09:49:22;;;;;;;4.30;1.82;;;;;;;22.75;32.31;97975.96;1739954;82;21446;-77
2021/05/27 09:51:45;;;;;;;1.62;0.93;;;;;;;22.80;32.87;97981.19;1739329;82;21049;-77
2021/05/27 09:54:11;;;;;;;3.00;0.95;;;;;;;22.94;31.96;97983.50;1740121;82;21125;-77
2021/05/27 09:56:40;;;;;;;4.10;1.10;;;;;;;21.66;34.22;97980.56;1712901;82;20891;-77
2021/05/27 09:59:11;;;;;;;2.00;1.10;;;;;;;23.21;31.83;97978.93;1739165;82;20946;-77
2021/05/27 10:01:43;;;;;;;2.17;1.10;;;;;;;23.53;32.14;97979.58;1739754;82;21021;-78
2021/05/27 10:04:14;;;;;;;1.67;1.02;;;;;;;24.41;30.77;97980.38;1709304;82;20998;-76
2021/05/27 10:06:40;;;;;;;1.35;0.95;;;;;;;24.88;30.76;97977.72;1739888;82;21130;-77
2021/05/27 10:09:08;;;;;;;2.08;0.90;;;;;;;24.57;31.00;97972.50;1739952;82;20976;-77
2021/05/27 10:11:36;;;;;;;1.87;1.10;;;;;;;24.36;30.85;97971.02;1739968;82;20977;-77
2021/05/27 10:14:02;;;;;;;3.87;1.00;;;;;;;24.24;31.33;97971.17;1739755;82;21008;-77
2021/05/27 10:16:28;;;;;;;4.37;1.22;;;;;;;23.78;32.69;97970.39;1739908;82;20910;-77
2021/05/27 10:18:55;;;;;;;2.80;1.42;;;;;;;23.34;33.11;97975.67;1739979;82;21199;-77
2021/05/27 10:21:22;;;;;;;1.92;0.90;;;;;;;23.67;32.40;97970.20;1739762;82;21001;-77
2021/05/27 10:23:50;;;;;;;3.42;1.20;;;;;;;23.00;32.82;97973.19;1739814;82;20988;-77
2021/05/27 10:26:16;;;;;;;1.95;1.10;;;;;;;22.27;34.10;97972.47;1739738;82;21510;-77
2021/05/27 10:28:49;;;;;;;1.47;1.00;;;;;;;22.72;33.66;97976.08;1739769;82;21006;-77
2021/05/27 10:31:15;;;;;;;2.60;0.90;;;;;;;22.22;35.03;97974.94;1739073;82;21147;-76
2021/05/27 10:33:42;;;;;;;2.33;1.00;;;;;;;21.99;34.93;97976.69;1739865;82;21045;-76
2021/05/27 10:36:09;;;;;;;2.50;1.27;;;;;;;21.35;36.01;97977.73;1739881;82;20967;-75
2021/05/27 10:38:43;;;;;;;2.05;1.10;;;;;;;21.36;36.16;97976.57;1739796;82;21013;-76
2021/05/27 10:41:16;;;;;;;1.37;1.00;;;;;;;21.62;35.89;97977.47;1739863;82;21405;-77
2021/05/27 10:44:07;;;;;;;2.30;1.40;;;;;;;21.85;35.72;97972.17;1689212;80;21469;-78
2021/05/27 10:46:44;;;;;;;2.20;1.40;;;;;;;21.79;34.60;97965.31;1740161;82;20941;-77
2021/05/27 10:49:10;;;;;;;2.70;1.40;;;;;;;21.52;36.21;97973.86;1718295;82;21037;-77
2021/05/27 10:51:49;;;;;;;2.55;1.20;;;;;;;22.66;33.37;97973.40;1739885;82;20854;-77
2021/05/27 10:54:14;;;;;;;1.75;1.10;;;;;;;22.08;34.57;97976.55;1739527;82;20934;-76
2021/05/27 10:56:43;;;;;;;3.45;1.40;;;;;;;21.52;34.68;97979.38;1739820;82;21020;-78
2021/05/27 10:59:12;;;;;;;2.08;1.15;;;;;;;22.50;34.14;97976.77;1712539;82;21025;-77
2021/05/27 11:01:44;;;;;;;4.35;1.40;;;;;;;22.62;34.18;97975.84;1739927;82;20957;-77
2021/05/27 11:04:34;;;;;;;4.97;1.47;;;;;;;22.55;34.92;97974.30;1740265;82;21112;-77
2021/05/27 11:07:19;;;;;;;4.78;1.27;;;;;;;24.00;32.34;97975.11;1740081;82;21026;-77
2021/05/27 11:09:50;;;;;;;2.60;1.52;;;;;;;23.81;32.00;97969.06;1713309;82;21208;-76
2021/05/27 11:12:21;;;;;;;1.30;0.90;;;;;;;23.63;32.00;97969.32;1738936;82;21104;-77
2021/05/27 11:15:03;;;;;;;2.10;1.70;;;;;;;23.98;32.43;97969.16;1739968;82;20973;-78
2021/05/27 11:17:29;;;;;;;2.62;1.40;;;;;;;24.02;32.57;97972.00;1739272;82;21082;-77
2021/05/27 11:20:04;;;;;;;3.75;1.30;;;;;;;23.60;33.20;97975.59;1739906;82;21587;-76
2021/05/27 11:22:44;;;;;;;3.42;1.35;;;;;;;22.09;35.45;97977.56;1739758;82;21603;-77
2021/05/27 11:25:25;;;;;;;1.70;1.10;;;;;;;22.51;35.09;97980.55;1738411;82;20962;-78
2021/05/27 11:28:07;;;;;;;5.70;2.12;;;;;;;21.85;36.10;97974.94;1740254;82;20954;-78
2021/05/27 11:30:43;;;;;;;4.03;1.45;;;;;;;21.90;37.15;97975.48;1740534;82;21429;-77
2021/05/27 11:33:26;;;;;;;2.47;1.67;;;;;;;21.80;36.84;97982.91;1739977;82;21033;-77
2021/05/27 11:35:57;;;;;;;2.15;1.10;;;;;;;22.27;35.67;97977.99;1739678;82;21057;-77
2021/05/27 11:38:28;;;;;;;2.85;1.52;;;;;;;21.79;35.50;97986.83;1740215;82;20997;-76
2021/05/27 11:40:57;;;;;;;4.50;1.40;;;;;;;20.95;37.99;97984.05;1738601;82;21042;-78
2021/05/27 11:43:38;;;;;;;3.95;1.60;;;;;;;21.46;37.57;97978.05;1739817;82;20997;-78
2021/05/27 11:46:16;;;;;;;3.15;1.90;;;;;;;21.44;36.34;97978.38;1738296;80;20906;-77